TFM - Tactical Decision Aid (Experimental) INFO Settings

ID: Runway Winds: METAR Board: Map:

Katl - Atlanta-Hartsfield Jackson Intl

Updated at: 1022 UTC 27 Jan 2015
Latest TAF at: 0959 UTC 27 Jan 2015

TAF Board

Time0952Z27/11Z27/12Z27/13Z27/14Z27/15Z27/16Z27/17Z27/18Z27/19Z27/20Z27/21Z27/22Z27/23Z
TypeOBSPRVLPRVLPRVLPRVLPRVLPRVLPRVLPRVLPRVLPRVLPRVLPRVLPRVL
VIS10>6>6>6>6>6>6>6>6>6>6>6>6>6
CIG4845454545505050------------
CoverOVCBKNBKNBKNBKNBKNBKNBKNSCTSCTSCTSCTSCTSCT
FltCat--VFRVFRVFRVFRVFRVFRVFRVFRVFRVFRVFRVFRVFR
WX----------------------------
WDir280290290290290310310310320320320320320320
WSpd67777101010121212121212
WGst----------161616222222222222
TAF
KATL 270959Z 2710/2812 29007KT P6SM BKN045
  FM271500 31010G16KT P6SM BKN050
  FM271800 32012G22KT P6SM SCT050
  FM280200 33010KT P6SM SCT250


METAR
KATL 270952Z 28006KT 10SM OVC048 01/M02 A2986 RMK AO2 SLP118 T00061022

TAF/METAR Board Legend

Hazard VFR MVFR IFR LIFR
Visibility (sm) >5 3≤X≤5 1≤X<3 <1
Ceiling (100 ft) >30 10≤X≤30 5≤X<10 <5
Wind Speed (kt) <10 10≤X<20 20≤X<30 ≥30
Wind Gust (kt) <15 15≤X<25 25≤X<35 ≥35
Weather No Wx Reported VCTS,-TS,-FZRA TS,FZRA +TS,+FZRA




Page loaded:  10:22 UTC  |   02:22 AM Pacific  |   03:22 AM Mountain  |   04:22 AM Central  |   05:22 AM Eastern

 

ADVISORIES

FORECASTS

FORECASTS

OBSERVATIONS

USER TOOLS

ABOUT US